Time;durP1;ratioP1;P1;durP2;ratioP2;P2;SDS_P1;SDS_P2;PMS_P1;PMS_P2;Temp;Humidity;BMP_temperature;BMP_pressure;BME280_temperature;BME280_humidity;BME280_pressure;Samples;Min_cycle;Max_cycle;Signal;HPM_P1;HPM_P2
2024/01/08 00:01:11;;;;;;;8.68;4.70;;;;;;;-3.87;100.00;99267.06;6109005;19;20014;-71
2024/01/08 00:03:12;;;;;;;7.78;3.88;;;;;;;-3.90;100.00;99259.47;6105805;19;20560;-71
2024/01/08 00:05:12;;;;;;;8.75;4.57;;;;;;;-3.93;100.00;99263.53;6109032;19;20016;-71
2024/01/08 00:07:13;;;;;;;6.95;4.60;;;;;;;-3.92;100.00;99273.25;6108103;19;20019;-71
2024/01/08 00:09:13;;;;;;;8.27;3.88;;;;;;;-3.93;100.00;99268.13;6108956;19;20018;-71
2024/01/08 00:11:13;;;;;;;7.10;4.22;;;;;;;-3.96;100.00;99269.47;6108515;19;19999;-71
2024/01/08 00:13:14;;;;;;;8.18;4.13;;;;;;;-4.03;100.00;99260.78;6107473;19;20010;-71
2024/01/08 00:15:14;;;;;;;8.88;4.38;;;;;;;-3.96;100.00;99264.06;6107968;19;19999;-71
2024/01/08 00:17:14;;;;;;;8.60;4.28;;;;;;;-3.99;100.00;99267.28;6108177;19;20002;-71
2024/01/08 00:19:16;;;;;;;10.30;4.57;;;;;;;-3.97;100.00;99271.34;6109173;19;20467;-71
2024/01/08 00:21:16;;;;;;;6.85;3.92;;;;;;;-3.97;100.00;99268.66;6108870;19;20003;-71
2024/01/08 00:23:16;;;;;;;6.35;3.83;;;;;;;-3.90;100.00;99256.75;6107638;19;20458;-71
2024/01/08 00:25:21;;;;;;;8.75;4.88;;;;;;;-3.90;100.00;99260.28;6108385;19;20007;-70
2024/01/08 00:27:21;;;;;;;7.22;4.20;;;;;;;-3.93;100.00;99257.31;6107478;19;20040;-71
2024/01/08 00:29:22;;;;;;;8.40;4.43;;;;;;;-3.93;100.00;99262.72;6107944;19;19999;-71
2024/01/08 00:31:22;;;;;;;7.57;4.57;;;;;;;-3.89;100.00;99258.38;6108453;19;20477;-71
2024/01/08 00:33:22;;;;;;;7.95;4.10;;;;;;;-3.93;100.00;99263.53;6107663;19;20002;-71
2024/01/08 00:35:22;;;;;;;7.35;4.00;;;;;;;-3.96;100.00;99254.06;6107916;19;20459;-71
2024/01/08 00:37:23;;;;;;;8.00;4.47;;;;;;;-4.02;100.00;99252.41;6107466;19;20029;-71
2024/01/08 00:39:24;;;;;;;7.55;4.10;;;;;;;-4.03;100.00;99263.47;6107578;19;20029;-71
2024/01/08 00:41:25;;;;;;;8.10;4.53;;;;;;;-4.06;100.00;99262.09;6108144;19;20002;-71
2024/01/08 00:43:25;;;;;;;8.32;4.28;;;;;;;-4.05;100.00;99254.84;6105203;19;20255;-71
2024/01/08 00:45:26;;;;;;;7.45;4.25;;;;;;;-3.98;100.00;99255.38;6107729;19;20014;-71
2024/01/08 00:47:26;;;;;;;7.43;3.92;;;;;;;-4.05;100.00;99257.53;6108075;19;20364;-71
2024/01/08 00:49:26;;;;;;;7.53;4.07;;;;;;;-4.01;100.00;99255.91;6096302;19;20336;-71
2024/01/08 00:51:27;;;;;;;6.50;3.80;;;;;;;-4.03;100.00;99261.59;6107222;19;20405;-71
2024/01/08 00:53:27;;;;;;;5.72;3.70;;;;;;;-4.04;100.00;99256.44;6106888;19;20347;-71
2024/01/08 00:55:28;;;;;;;7.05;4.20;;;;;;;-4.06;100.00;99256.69;6106884;19;20023;-71
2024/01/08 00:57:29;;;;;;;7.05;3.80;;;;;;;-4.01;100.00;99262.13;6106375;19;20017;-71
2024/01/08 00:59:29;;;;;;;7.55;4.22;;;;;;;-4.01;100.00;99253.22;6107655;19;20454;-71
2024/01/08 01:01:29;;;;;;;5.97;3.78;;;;;;;-4.03;100.00;99255.38;6108292;19;20597;-71
2024/01/08 01:03:30;;;;;;;5.15;3.55;;;;;;;-4.02;100.00;99259.69;6106011;19;20061;-71
2024/01/08 01:05:30;;;;;;;9.57;3.72;;;;;;;-3.99;100.00;99259.16;6104404;19;20401;-71
2024/01/08 01:07:31;;;;;;;7.18;3.55;;;;;;;-4.00;100.00;99262.94;6106539;19;20007;-71
2024/01/08 01:09:31;;;;;;;5.93;3.58;;;;;;;-4.09;100.00;99257.22;6106882;19;20002;-71
2024/01/08 01:11:32;;;;;;;7.78;3.65;;;;;;;-4.02;100.00;99263.22;6112085;19;20034;-71
2024/01/08 01:13:32;;;;;;;8.90;3.92;;;;;;;-3.97;100.00;99262.44;6112426;19;19999;-71
2024/01/08 01:15:32;;;;;;;6.68;3.78;;;;;;;-3.99;100.00;99265.38;6112162;19;20077;-71
2024/01/08 01:17:33;;;;;;;6.07;3.38;;;;;;;-3.97;100.00;99263.25;6110980;19;20012;-71
2024/01/08 01:19:33;;;;;;;6.53;3.88;;;;;;;-4.01;100.00;99267.53;6112368;19;20012;-71
2024/01/08 01:21:34;;;;;;;6.07;3.75;;;;;;;-3.96;100.00;99269.47;6112519;19;20006;-71
2024/01/08 01:23:34;;;;;;;8.52;3.97;;;;;;;-3.99;100.00;99264.56;6111163;19;20458;-71
2024/01/08 01:25:34;;;;;;;6.72;3.95;;;;;;;-3.96;100.00;99270.28;6110915;19;20070;-71
2024/01/08 01:27:35;;;;;;;5.57;3.60;;;;;;;-3.94;100.00;99277.31;6112210;19;20015;-71
2024/01/08 01:29:35;;;;;;;5.43;3.42;;;;;;;-4.00;100.00;99274.56;6108187;19;20466;-71
2024/01/08 01:31:36;;;;;;;6.47;3.67;;;;;;;-3.96;100.00;99264.88;6110281;19;20021;-71
2024/01/08 01:33:36;;;;;;;9.30;4.38;;;;;;;-4.06;100.00;99269.41;6111260;19;20534;-71
2024/01/08 01:35:36;;;;;;;8.70;3.95;;;;;;;-3.97;100.00;99268.66;6110937;19;20014;-71
2024/01/08 01:37:38;;;;;;;7.00;4.15;;;;;;;-4.01;100.00;99288.34;6111576;19;20015;-71
2024/01/08 01:39:38;;;;;;;6.13;3.50;;;;;;;-4.01;100.00;99274.84;6110250;19;20486;-71
2024/01/08 01:41:38;;;;;;;6.65;3.80;;;;;;;-4.06;100.00;99272.91;6109627;19;20006;-71
2024/01/08 01:43:38;;;;;;;6.88;3.72;;;;;;;-4.09;100.00;99273.44;6110019;19;19999;-71
2024/01/08 01:45:39;;;;;;;5.93;3.92;;;;;;;-4.09;100.00;99281.56;6111580;19;20006;-71
2024/01/08 01:47:39;;;;;;;7.15;3.88;;;;;;;-4.09;100.00;99276.16;6111539;19;20009;-71
2024/01/08 01:49:40;;;;;;;7.45;3.75;;;;;;;-4.12;100.00;99273.16;6103058;19;20490;-71
2024/01/08 01:51:45;;;;;;;5.65;3.80;;;;;;;-4.13;100.00;99279.66;6102862;19;20026;-71
2024/01/08 01:53:45;;;;;;;5.95;3.17;;;;;;;-4.12;100.00;99279.38;6102501;19;20021;-70
2024/01/08 01:55:46;;;;;;;6.97;3.78;;;;;;;-4.17;100.00;99281.25;6103238;19;20002;-70
2024/01/08 01:57:47;;;;;;;5.00;3.50;;;;;;;-4.17;100.00;99286.66;6103116;19;20245;-70
2024/01/08 01:59:47;;;;;;;8.15;3.83;;;;;;;-4.26;100.00;99280.94;6103098;19;20006;-70
2024/01/08 02:01:48;;;;;;;5.28;3.20;;;;;;;-4.20;100.00;99287.19;6103374;19;20002;-70
2024/01/08 02:03:49;;;;;;;6.60;3.70;;;;;;;-4.23;100.00;99291.19;6102483;19;19998;-70
2024/01/08 02:05:50;;;;;;;6.28;3.25;;;;;;;-4.28;100.00;99289.28;6103247;19;20466;-70
2024/01/08 02:07:52;;;;;;;4.05;3.00;;;;;;;-4.32;100.00;99292.75;6103473;19;20110;-70
2024/01/08 02:09:53;;;;;;;;;;;;;;;-4.29;100.00;99295.78;6103638;19;20014;-70
2024/01/08 02:11:54;;;;;;;4.70;2.72;;;;;;;-4.37;100.00;99301.66;6102493;19;19911;-70
2024/01/08 02:13:54;;;;;;;7.60;3.58;;;;;;;-4.52;100.00;99290.75;6101629;19;20029;-70
2024/01/08 02:15:55;;;;;;;3.95;2.80;;;;;;;-4.55;100.00;99299.38;6102898;19;20511;-70
2024/01/08 02:17:55;;;;;;;4.70;3.00;;;;;;;-4.62;100.00;99299.59;6102118;19;20087;-70
2024/01/08 02:19:55;;;;;;;4.07;2.65;;;;;;;-4.60;100.00;99297.47;6102743;19;20426;-70
2024/01/08 02:21:56;;;;;;;5.25;2.97;;;;;;;-4.68;100.00;99287.13;6100608;19;20543;-70
2024/01/08 02:23:56;;;;;;;6.55;3.17;;;;;;;-4.70;100.00;99313.59;6101899;19;20006;-70
2024/01/08 02:25:57;;;;;;;6.70;3.28;;;;;;;-4.76;100.00;99303.00;6102755;19;20010;-70
2024/01/08 02:27:57;;;;;;;5.45;2.90;;;;;;;-4.79;100.00;99296.25;6099862;19;20254;-70
2024/01/08 02:29:58;;;;;;;7.03;3.60;;;;;;;-4.76;100.00;99300.28;6102601;19;20030;-70
2024/01/08 02:31:58;;;;;;;5.47;3.72;;;;;;;-4.79;100.00;99292.72;6102153;19;20003;-70
2024/01/08 02:33:58;;;;;;;8.48;4.07;;;;;;;-4.82;100.00;99299.44;6101049;19;20554;-70
2024/01/08 02:36:00;;;;;;;6.05;3.20;;;;;;;-4.95;100.00;99299.88;6102165;19;20140;-70
2024/01/08 02:38:00;;;;;;;5.78;3.17;;;;;;;-5.02;100.00;99299.28;6100971;19;20002;-70
2024/01/08 02:40:01;;;;;;;4.63;2.92;;;;;;;-5.03;100.00;99308.44;6102276;19;20358;-70
2024/01/08 02:42:02;;;;;;;5.40;3.08;;;;;;;-5.11;100.00;99299.75;6101015;19;20818;-70
2024/01/08 02:44:02;;;;;;;8.82;3.58;;;;;;;-5.05;100.00;99313.25;6101784;19;19999;-70
2024/01/08 02:46:03;;;;;;;7.55;2.97;;;;;;;-5.09;100.00;99311.09;6101108;19;20458;-71
2024/01/08 02:48:03;;;;;;;4.82;3.10;;;;;;;-5.02;100.00;99313.56;6099591;19;19994;-70
2024/01/08 02:50:08;;;;;;;5.45;2.63;;;;;;;-5.09;100.00;99324.56;6109156;19;20017;-70
2024/01/08 02:52:08;;;;;;;4.47;2.60;;;;;;;-5.15;100.00;99319.38;6109357;19;20001;-70
2024/01/08 02:54:08;;;;;;;5.30;2.72;;;;;;;-5.18;100.00;99322.59;6107421;19;20003;-70
2024/01/08 02:56:21;;;;;;;7.22;3.42;;;;;;;-5.11;100.00;99323.22;6109212;19;20021;-70
2024/01/08 02:58:21;;;;;;;;;;;;;;;-5.17;100.00;99326.91;6110574;19;20257;-70
2024/01/08 03:00:22;;;;;;;5.95;3.13;;;;;;;-5.19;100.00;99323.66;6109318;19;19911;-70
2024/01/08 03:02:25;;;;;;;6.45;3.42;;;;;;;-5.24;100.00;99335.22;6109489;19;20430;-70
2024/01/08 03:04:26;;;;;;;6.03;3.63;;;;;;;-5.27;100.00;99340.31;6108667;19;19998;-70
2024/01/08 03:06:26;;;;;;;4.50;2.72;;;;;;;-5.27;100.00;99341.13;6110817;19;20010;-70
2024/01/08 03:08:27;;;;;;;3.83;2.80;;;;;;;-5.22;100.00;99346.56;6107858;19;20491;-70
2024/01/08 03:10:27;;;;;;;4.03;2.90;;;;;;;-5.25;100.00;99341.69;6110457;19;20010;-70
2024/01/08 03:12:27;;;;;;;4.70;2.95;;;;;;;-5.33;100.00;99355.63;6109967;19;20427;-70
2024/01/08 03:14:27;;;;;;;4.10;2.80;;;;;;;-5.52;100.00;99349.75;6110006;19;20020;-70
2024/01/08 03:16:28;;;;;;;5.60;2.90;;;;;;;-5.47;100.00;99348.97;6111479;19;20545;-70
2024/01/08 03:18:28;;;;;;;5.15;2.40;;;;;;;-5.57;100.00;99354.25;6110131;19;20007;-70
2024/01/08 03:20:28;;;;;;;3.45;2.60;;;;;;;-5.73;100.00;99359.44;6110786;19;20010;-70
2024/01/08 03:22:29;;;;;;;5.07;2.92;;;;;;;-5.86;100.00;99359.03;6110063;19;20002;-70
2024/01/08 03:24:29;;;;;;;5.07;2.85;;;;;;;-5.90;100.00;99368.69;6109581;19;20021;-70
2024/01/08 03:26:29;;;;;;;6.55;3.05;;;;;;;-5.89;100.00;99364.88;6109588;19;20730;-70
2024/01/08 03:28:30;;;;;;;4.72;2.75;;;;;;;-5.93;100.00;99371.88;6110189;19;20013;-70
2024/01/08 03:30:30;;;;;;;7.38;2.90;;;;;;;-6.13;100.00;99359.75;6107673;19;20031;-70
2024/01/08 03:32:30;;;;;;;3.85;2.20;;;;;;;-6.12;100.00;99374.03;6107695;19;20019;-70
2024/01/08 03:34:30;;;;;;;3.80;2.03;;;;;;;-6.13;100.00;99381.28;6108999;19;20563;-70
2024/01/08 03:36:31;;;;;;;4.57;2.47;;;;;;;-6.21;100.00;99373.63;6109899;19;20407;-70
2024/01/08 03:38:31;;;;;;;6.10;2.80;;;;;;;-6.22;100.00;99366.63;6108688;19;20014;-70
2024/01/08 03:40:31;;;;;;;4.00;2.60;;;;;;;-6.26;100.00;99366.31;6108731;19;20081;-70
2024/01/08 03:42:32;;;;;;;5.85;2.85;;;;;;;-6.34;100.00;99365.91;6108075;19;20075;-70
2024/01/08 03:44:32;;;;;;;3.78;2.67;;;;;;;-6.32;100.00;99372.66;6107243;19;20017;-70
2024/01/08 03:46:33;;;;;;;4.82;2.70;;;;;;;-6.43;100.00;99370.09;6108834;19;20364;-70
2024/01/08 03:48:33;;;;;;;6.10;2.85;;;;;;;-6.48;100.00;99373.50;6109851;19;20555;-70
2024/01/08 03:50:35;;;;;;;7.90;3.42;;;;;;;-6.45;100.00;99372.19;6105958;19;20010;-70
2024/01/08 03:52:35;;;;;;;7.18;2.97;;;;;;;-6.55;100.00;99379.03;6109014;19;20022;-70
2024/01/08 03:54:35;;;;;;;9.18;2.92;;;;;;;-6.60;100.00;99373.59;6107340;19;20442;-70
2024/01/08 03:56:36;;;;;;;6.85;3.20;;;;;;;-6.70;100.00;99386.03;6108769;19;20018;-70
2024/01/08 03:58:37;;;;;;;6.70;3.03;;;;;;;-6.76;100.00;99378.97;6108809;19;20027;-70
2024/01/08 04:00:37;;;;;;;7.43;2.75;;;;;;;-6.76;100.00;99378.97;6108054;19;20018;-70
2024/01/08 04:02:40;;;;;;;6.05;3.20;;;;;;;-6.72;100.00;99388.97;6107778;19;20003;-70
2024/01/08 04:04:44;;;;;;;4.78;2.90;;;;;;;-6.76;100.00;99393.22;6109471;19;20002;-70
2024/01/08 04:06:46;;;;;;;5.05;3.03;;;;;;;-6.74;100.00;99401.06;6107837;19;20066;-70
2024/01/08 04:08:46;;;;;;;6.32;3.15;;;;;;;-6.70;100.00;99399.50;6106559;19;20274;-70
2024/01/08 04:10:46;;;;;;;7.63;3.63;;;;;;;-6.85;100.00;99405.47;6105765;19;20006;-70
2024/01/08 04:12:47;;;;;;;7.30;3.03;;;;;;;-6.91;100.00;99393.78;6106763;19;20010;-70
2024/01/08 04:14:47;;;;;;;6.25;3.17;;;;;;;-6.95;100.00;99395.34;6108032;19;20099;-70
2024/01/08 04:16:47;;;;;;;6.45;3.97;;;;;;;-6.97;100.00;99407.38;6103149;19;20062;-70
2024/01/08 04:18:48;;;;;;;5.07;2.83;;;;;;;-6.99;100.00;99407.63;6105016;19;20010;-70
2024/01/08 04:20:48;;;;;;;6.88;3.83;;;;;;;-6.98;100.00;99398.47;6099962;19;20098;-70
2024/01/08 04:22:50;;;;;;;8.45;3.00;;;;;;;-7.05;100.00;99410.44;6104126;19;20039;-70
2024/01/08 04:24:50;;;;;;;6.25;3.47;;;;;;;-7.12;100.00;99391.75;6108315;19;19998;-70
2024/01/08 04:26:51;;;;;;;6.80;3.72;;;;;;;-7.15;100.00;99401.13;6106681;19;20002;-70
2024/01/08 04:28:52;;;;;;;6.65;3.63;;;;;;;-7.13;100.00;99399.00;6106074;19;20426;-70
2024/01/08 04:30:52;;;;;;;6.15;3.38;;;;;;;-7.15;100.00;99403.00;6105822;19;20007;-70
2024/01/08 04:32:53;;;;;;;6.05;3.60;;;;;;;-7.18;100.00;99398.94;6093600;19;20013;-70
2024/01/08 04:34:53;;;;;;;9.10;3.60;;;;;;;-7.21;100.00;99409.34;6093943;19;20110;-70
2024/01/08 04:36:53;;;;;;;6.68;3.53;;;;;;;-7.08;100.00;99411.75;6101495;19;20007;-70
2024/01/08 04:38:54;;;;;;;6.72;3.50;;;;;;;-7.06;100.00;99404.25;6109008;19;20086;-70
2024/01/08 04:40:54;;;;;;;7.20;3.00;;;;;;;-7.06;100.00;99401.56;6108134;19;20435;-70
2024/01/08 04:42:54;;;;;;;7.13;3.35;;;;;;;-7.06;100.00;99406.94;6107440;19;20441;-70
2024/01/08 04:44:55;;;;;;;8.13;2.97;;;;;;;-7.00;100.00;99413.25;6106748;19;19999;-70
2024/01/08 04:46:55;;;;;;;6.20;3.97;;;;;;;-7.09;100.00;99421.69;6107825;19;20010;-70
2024/01/08 04:48:55;;;;;;;6.80;3.60;;;;;;;-7.14;100.00;99423.47;6108116;19;20431;-70
2024/01/08 04:50:56;;;;;;;6.78;3.50;;;;;;;-7.28;100.00;99417.56;6107602;19;20003;-70
2024/01/08 04:52:57;;;;;;;8.57;4.05;;;;;;;-7.27;100.00;99413.00;6106355;19;20031;-70
2024/01/08 04:54:58;;;;;;;6.47;3.35;;;;;;;-7.31;100.00;99414.53;6107583;19;20015;-70
2024/01/08 04:56:58;;;;;;;6.22;3.55;;;;;;;-7.33;100.00;99424.72;6107697;19;20011;-70
2024/01/08 04:58:58;;;;;;;6.50;3.28;;;;;;;-7.31;100.00;99430.66;6108419;19;20027;-70
2024/01/08 05:00:59;;;;;;;5.28;2.78;;;;;;;-7.33;100.00;99425.53;6108232;19;20467;-70
2024/01/08 05:03:00;;;;;;;7.30;3.75;;;;;;;-7.41;100.00;99420.53;6104465;19;20007;-70
2024/01/08 05:05:04;;;;;;;4.80;3.17;;;;;;;-7.47;100.00;99426.84;6106893;19;20003;-70
2024/01/08 05:07:04;;;;;;;5.18;2.92;;;;;;;-7.53;100.00;99425.09;6108708;19;20014;-70
2024/01/08 05:09:05;;;;;;;6.03;4.03;;;;;;;-7.53;100.00;99438.53;6107872;19;20030;-70
2024/01/08 05:11:06;;;;;;;6.13;2.90;;;;;;;-7.48;100.00;99427.91;6107142;19;20003;-70
2024/01/08 05:13:07;;;;;;;9.00;3.85;;;;;;;-7.55;100.00;99430.72;6106597;19;20009;-70
2024/01/08 05:15:07;;;;;;;8.63;3.83;;;;;;;-7.55;100.00;99429.91;6107580;19;20006;-70
2024/01/08 05:17:08;;;;;;;8.57;3.40;;;;;;;-7.51;100.00;99434.56;6106610;19;20475;-70
2024/01/08 05:19:08;;;;;;;9.00;4.22;;;;;;;-7.58;100.00;99428.50;6107239;19;20011;-70
2024/01/08 05:21:13;;;;;;;7.25;3.25;;;;;;;-7.63;100.00;99433.75;6108163;19;20420;-70
2024/01/08 05:23:13;;;;;;;6.50;4.18;;;;;;;-7.60;100.00;99440.56;6105987;19;20003;-70
2024/01/08 05:25:13;;;;;;;10.15;4.35;;;;;;;-7.60;100.00;99446.75;6105916;19;20018;-70
2024/01/08 05:27:14;;;;;;;6.28;3.67;;;;;;;-7.57;100.00;99437.38;6106484;19;20446;-70
2024/01/08 05:29:14;;;;;;;10.10;4.05;;;;;;;-7.61;100.00;99439.75;6107668;19;20013;-70
2024/01/08 05:31:14;;;;;;;7.82;4.45;;;;;;;-7.65;100.00;99444.75;6106959;19;20093;-70
2024/01/08 05:33:15;;;;;;;8.10;4.00;;;;;;;-7.70;100.00;99444.63;6104705;19;20024;-70
2024/01/08 05:35:15;;;;;;;8.63;4.30;;;;;;;-7.72;100.00;99443.25;6106691;19;20228;-70
2024/01/08 05:37:16;;;;;;;8.23;4.35;;;;;;;-7.74;100.00;99445.34;6106278;19;20003;-70
2024/01/08 05:39:16;;;;;;;10.95;4.30;;;;;;;-7.72;100.00;99443.25;6106653;19;20010;-70
2024/01/08 05:41:18;;;;;;;7.72;3.65;;;;;;;-7.72;100.00;99449.44;6107215;19;20010;-70
2024/01/08 05:43:18;;;;;;;9.40;4.85;;;;;;;-7.59;100.00;99444.88;6105530;19;20312;-70
2024/01/08 05:45:19;;;;;;;7.32;3.92;;;;;;;-7.66;100.00;99447.69;6105960;19;20074;-70
2024/01/08 05:47:19;;;;;;;17.77;4.75;;;;;;;-7.64;100.00;99449.06;6106164;19;20364;-70
2024/01/08 05:49:19;;;;;;;12.02;4.78;;;;;;;-7.71;100.00;99448.38;6097390;19;20008;-70
2024/01/08 05:51:20;;;;;;;7.47;3.67;;;;;;;-7.70;100.00;99463.44;6104006;19;20470;-70
2024/01/08 05:53:20;;;;;;;8.57;4.90;;;;;;;-7.67;100.00;99454.13;6104894;19;20006;-70
2024/01/08 05:55:21;;;;;;;12.23;4.78;;;;;;;-7.65;100.00;99450.13;6105244;19;20014;-70
2024/01/08 05:57:21;;;;;;;8.52;4.47;;;;;;;-7.70;100.00;99458.06;6108662;19;20007;-70
2024/01/08 05:59:21;;;;;;;8.80;4.47;;;;;;;-7.69;100.00;99457.03;6111670;19;20336;-70
2024/01/08 06:01:21;;;;;;;10.55;4.90;;;;;;;-7.76;100.00;99464.41;6111588;19;20331;-70
2024/01/08 06:03:22;;;;;;;10.02;4.30;;;;;;;-7.73;100.00;99460.41;6110697;19;20002;-70
2024/01/08 06:05:23;;;;;;;10.52;4.50;;;;;;;-7.82;100.00;99461.84;6110861;19;20010;-70
2024/01/08 06:07:24;;;;;;;11.75;4.78;;;;;;;-7.92;100.00;99455.19;6109515;19;20015;-70
2024/01/08 06:09:24;;;;;;;11.48;5.97;;;;;;;-8.00;100.00;99468.97;6111386;19;20007;-70
2024/01/08 06:11:24;;;;;;;9.77;5.03;;;;;;;-8.00;100.00;99468.97;6109008;19;20026;-70
2024/01/08 06:13:24;;;;;;;11.00;4.28;;;;;;;-8.05;100.00;99466.16;6109946;19;20003;-70
2024/01/08 06:15:25;;;;;;;9.10;4.95;;;;;;;-8.08;100.00;99473.88;6109581;19;20282;-70
2024/01/08 06:17:25;;;;;;;8.07;4.05;;;;;;;-8.07;100.00;99483.56;6109867;19;20014;-70
2024/01/08 06:19:25;;;;;;;8.63;4.20;;;;;;;-8.08;100.00;99471.19;6110416;19;20011;-70
2024/01/08 06:21:25;;;;;;;9.27;4.70;;;;;;;-8.16;100.00;99464.28;6110762;19;20017;-70
2024/01/08 06:23:26;;;;;;;10.10;4.88;;;;;;;-8.21;100.00;99472.19;6110253;19;20367;-70
2024/01/08 06:25:26;;;;;;;9.05;4.35;;;;;;;-8.25;100.00;99458.44;6111267;19;20010;-70
2024/01/08 06:27:26;;;;;;;6.97;3.85;;;;;;;-8.18;100.00;99473.63;6109265;19;20010;-70
2024/01/08 06:29:27;;;;;;;10.68;4.72;;;;;;;-8.20;100.00;99476.53;6111315;19;20014;-70
2024/01/08 06:31:27;;;;;;;8.93;4.80;;;;;;;-8.15;100.00;99486.59;6109159;19;20467;-70
2024/01/08 06:33:27;;;;;;;13.60;5.03;;;;;;;-8.19;100.00;99486.25;6109685;19;20014;-70
2024/01/08 06:35:28;;;;;;;10.40;5.15;;;;;;;-8.20;100.00;99477.34;6111372;19;20007;-70
2024/01/08 06:37:28;;;;;;;11.23;4.75;;;;;;;-8.21;100.00;99474.88;6110361;19;20354;-70
2024/01/08 06:39:28;;;;;;;8.57;4.20;;;;;;;-8.36;100.00;99486.09;6111029;19;20329;-70
2024/01/08 06:41:29;;;;;;;7.30;3.67;;;;;;;-8.38;100.00;99498.94;6110327;19;20266;-70
2024/01/08 06:43:29;;;;;;;12.52;4.75;;;;;;;-8.42;100.00;99489.72;6110061;19;20003;-70
2024/01/08 06:45:30;;;;;;;10.38;4.55;;;;;;;-8.47;100.00;99497.63;6109885;19;20070;-70
2024/01/08 06:47:30;;;;;;;13.02;5.18;;;;;;;-8.48;100.00;99501.38;6109976;19;20003;-70
2024/01/08 06:49:30;;;;;;;12.93;4.75;;;;;;;-8.56;100.00;99499.00;6102970;19;20030;-70
2024/01/08 06:51:31;;;;;;;12.85;5.53;;;;;;;-8.60;100.00;99501.34;6101058;19;20405;-70
2024/01/08 06:53:31;;;;;;;9.93;4.82;;;;;;;-8.60;100.00;99503.22;6101477;19;20868;-70
2024/01/08 06:55:31;;;;;;;6.25;3.65;;;;;;;-8.56;100.00;99510.56;6102357;19;20014;-70
2024/01/08 06:57:32;;;;;;;12.75;5.18;;;;;;;-8.67;100.00;99514.03;6101335;19;20016;-70
2024/01/08 06:59:32;;;;;;;10.20;4.90;;;;;;;-8.74;100.00;99509.81;6101785;19;20364;-70
2024/01/08 07:01:32;;;;;;;7.88;4.07;;;;;;;-8.69;100.00;99512.59;6102209;19;20031;-70
2024/01/08 07:03:34;;;;;;;9.43;4.40;;;;;;;-8.72;100.00;99518.44;6100979;19;20006;-70
2024/01/08 07:05:35;;;;;;;10.55;4.85;;;;;;;-8.79;100.00;99519.34;6102741;19;20003;-70
2024/01/08 07:07:38;;;;;;;8.88;4.82;;;;;;;-8.84;100.00;99526.44;6101038;19;20313;-70
2024/01/08 07:09:38;;;;;;;10.75;4.60;;;;;;;-8.90;100.00;99519.28;6101285;19;20743;-70
2024/01/08 07:11:39;;;;;;;8.27;4.47;;;;;;;-8.88;100.00;99520.69;6101148;19;20039;-70
2024/01/08 07:13:39;;;;;;;10.43;4.97;;;;;;;-8.85;100.00;99531.00;6100097;19;20006;-70
2024/01/08 07:15:45;;;;;;;9.88;4.72;;;;;;;-8.89;100.00;99529.78;6101582;19;20007;-70
2024/01/08 07:17:46;;;;;;;8.57;4.80;;;;;;;-8.91;100.00;99521.16;6102286;19;20011;-70
2024/01/08 07:19:46;;;;;;;12.40;5.00;;;;;;;-8.88;100.00;99531.44;6101689;19;20078;-70
2024/01/08 07:21:47;;;;;;;12.57;4.85;;;;;;;-8.91;100.00;99526.53;6101985;19;20002;-70
2024/01/08 07:23:49;;;;;;;11.63;5.47;;;;;;;-8.91;100.00;99536.44;6101630;19;20345;-70
2024/01/08 07:25:52;;;;;;;9.43;4.85;;;;;;;-8.85;100.00;99541.72;6102680;19;19999;-70
2024/01/08 07:27:52;;;;;;;9.98;4.68;;;;;;;-8.87;100.00;99542.97;6101431;19;20447;-70
2024/01/08 07:29:54;;;;;;;9.25;4.80;;;;;;;-8.91;100.00;99541.81;6101536;19;20036;-70
2024/01/08 07:31:54;;;;;;;12.75;5.38;;;;;;;-8.97;100.00;99553.41;6100779;19;20034;-70
2024/01/08 07:33:54;;;;;;;9.23;5.30;;;;;;;-9.01;100.00;99553.06;6100562;19;20010;-70
2024/01/08 07:35:55;;;;;;;9.80;5.13;;;;;;;-9.08;100.00;99557.69;6101285;19;20486;-70
2024/01/08 07:37:55;;;;;;;14.02;5.85;;;;;;;-8.97;100.00;99556.09;6100489;19;20002;-70
2024/01/08 07:39:55;;;;;;;12.57;5.13;;;;;;;-8.97;100.00;99570.31;6101834;19;20321;-70
2024/01/08 07:41:56;;;;;;;12.48;5.32;;;;;;;-9.08;100.00;99560.38;6101213;19;20394;-70
2024/01/08 07:43:56;;;;;;;15.68;6.15;;;;;;;-9.07;100.00;99565.50;6099395;19;20029;-70
2024/01/08 07:45:56;;;;;;;13.13;5.43;;;;;;;-9.10;100.00;99570.47;6102277;19;20010;-70
2024/01/08 07:47:57;;;;;;;8.85;4.68;;;;;;;-9.04;100.00;99571.44;6099212;19;20066;-70
2024/01/08 07:49:57;;;;;;;11.02;4.90;;;;;;;-9.14;100.00;99572.78;6109122;19;20014;-70
2024/01/08 07:51:58;;;;;;;13.98;6.63;;;;;;;-9.15;100.00;99576.53;6109020;19;21043;-70
2024/01/08 07:53:58;;;;;;;13.07;5.28;;;;;;;-9.11;100.00;99588.41;6107727;19;20003;-70
2024/01/08 07:55:58;;;;;;;15.35;7.00;;;;;;;-9.15;100.00;99584.56;6108724;19;20038;-70
2024/01/08 07:57:59;;;;;;;27.10;8.55;;;;;;;-9.10;100.00;99590.09;6108724;19;20312;-70
2024/01/08 07:59:59;;;;;;;17.52;8.10;;;;;;;-9.15;100.00;99587.25;6109239;19;20006;-70
2024/01/08 08:01:59;;;;;;;19.63;8.50;;;;;;;-9.12;100.00;99591.34;6109240;19;20011;-70
2024/01/08 08:04:00;;;;;;;36.08;14.20;;;;;;;-9.15;100.00;99589.94;6107492;19;20007;-70
2024/01/08 08:06:00;;;;;;;36.90;11.48;;;;;;;-9.09;100.00;99589.03;6108938;19;20010;-70
2024/01/08 08:08:00;;;;;;;33.38;13.48;;;;;;;-9.06;100.00;99593.94;6108763;19;20023;-70
2024/01/08 08:10:01;;;;;;;24.45;9.73;;;;;;;-9.04;100.00;99598.25;6109210;19;20017;-71
2024/01/08 08:12:02;;;;;;;31.70;10.75;;;;;;;-9.00;100.00;99604.84;6107646;19;20030;-71
2024/01/08 08:14:02;;;;;;;25.50;10.85;;;;;;;-9.03;100.00;99599.91;6107421;19;20734;-71
2024/01/08 08:16:03;;;;;;;24.33;10.13;;;;;;;-9.03;100.00;99598.03;6108901;19;20983;-71
2024/01/08 08:18:04;;;;;;;17.23;8.02;;;;;;;-8.97;100.00;99615.91;6106960;19;20102;-71
2024/01/08 08:20:05;;;;;;;20.67;9.15;;;;;;;-9.04;100.00;99615.16;6106295;19;20423;-71
2024/01/08 08:22:05;;;;;;;23.67;9.50;;;;;;;-9.03;100.00;99613.31;6108548;19;20031;-71
2024/01/08 08:24:06;;;;;;;16.25;8.95;;;;;;;-9.02;100.00;99615.75;6107176;19;20007;-71
2024/01/08 08:26:06;;;;;;;22.15;9.63;;;;;;;-9.00;100.00;99620.91;6108541;19;20010;-71
2024/01/08 08:28:07;;;;;;;21.05;10.25;;;;;;;-9.01;100.00;99624.66;6107206;19;20090;-71
2024/01/08 08:30:11;;;;;;;19.02;8.43;;;;;;;-9.08;100.00;99614.00;6107057;19;20002;-71
2024/01/08 08:32:12;;;;;;;12.68;6.22;;;;;;;-9.12;100.00;99629.69;6108775;19;20526;-71
2024/01/08 08:34:12;;;;;;;20.85;7.68;;;;;;;-9.28;100.00;99624.91;6107199;19;20079;-71
2024/01/08 08:36:12;;;;;;;12.75;6.32;;;;;;;-9.32;100.00;99631.75;6106877;19;20002;-71
2024/01/08 08:38:13;;;;;;;28.45;10.65;;;;;;;-9.26;100.00;99636.25;6107120;19;20003;-71
2024/01/08 08:40:13;;;;;;;21.10;9.27;;;;;;;-9.18;100.00;99641.31;6108119;19;20466;-70
2024/01/08 08:42:13;;;;;;;19.58;8.70;;;;;;;-9.21;100.00;99639.06;6107154;19;19998;-70
2024/01/08 08:44:15;;;;;;;15.63;6.32;;;;;;;-9.28;100.00;99654.38;6106972;19;20007;-71
2024/01/08 08:46:15;;;;;;;15.40;6.93;;;;;;;-9.27;100.00;99653.34;6107473;19;20003;-71
2024/01/08 08:48:15;;;;;;;12.48;6.28;;;;;;;-9.27;100.00;99642.63;6107219;19;20428;-71
2024/01/08 08:50:16;;;;;;;14.57;8.38;;;;;;;-9.22;100.00;99641.97;6107980;19;20408;-71
2024/01/08 08:52:16;;;;;;;11.88;6.75;;;;;;;-9.13;100.00;99654.84;6107834;19;19995;-71
2024/01/08 08:54:16;;;;;;;15.43;6.97;;;;;;;-9.23;100.00;99651.06;6106933;19;20013;-71
2024/01/08 08:56:17;;;;;;;7.88;4.47;;;;;;;-9.22;100.00;99650.00;6106767;19;20003;-71
2024/01/08 08:58:17;;;;;;;10.98;5.70;;;;;;;-9.33;100.00;99659.59;6107543;19;20016;-71
2024/01/08 09:00:18;;;;;;;13.73;5.40;;;;;;;-9.52;100.00;99668.63;6107476;19;20074;-71
2024/01/08 09:02:18;;;;;;;13.40;6.18;;;;;;;-9.45;100.00;99666.69;6107525;19;20006;-71
2024/01/08 09:04:18;;;;;;;15.95;6.57;;;;;;;-9.39;100.00;99671.19;6105369;19;20011;-71
2024/01/08 09:06:27;;;;;;;12.80;6.32;;;;;;;-9.35;100.00;99670.53;6107575;19;20024;-71
2024/01/08 09:08:28;;;;;;;10.90;5.85;;;;;;;-9.38;100.00;99662.94;6107602;19;20055;-71
2024/01/08 09:10:28;;;;;;;12.43;6.00;;;;;;;-9.36;100.00;99671.56;6107417;19;20366;-71
2024/01/08 09:12:29;;;;;;;13.50;6.82;;;;;;;-9.40;100.00;99682.97;6106558;19;20010;-71
2024/01/08 09:14:29;;;;;;;9.25;5.03;;;;;;;-9.34;100.00;99674.03;6106802;19;20007;-71
2024/01/08 09:16:30;;;;;;;11.23;6.00;;;;;;;-9.33;100.00;99683.72;6106957;19;20034;-71
2024/01/08 09:18:30;;;;;;;14.23;6.22;;;;;;;-9.32;100.00;99693.41;6107390;19;20010;-71
2024/01/08 09:20:31;;;;;;;14.98;6.82;;;;;;;-9.36;100.00;99689.50;6106886;19;20324;-71